Amelia City, Florida
Current Conditions -  °F | °C
As of 7:15 AM on Saturday 25 Oct 2014 (Local Time) from KFHB Reporting Station
Clear Clear  
Wind Chill: 14°   Ceiling: Unl
Heat Index: 14°   Visibility: 10mi
Dew Point: 12°   Wind: 5mph
Humidity: 88%   Direction: 320°NW
Pressure: 29.98"   Gusts: NA
Location:  30.6056°N, 81.5268°W
Report Text: KFHB 251115Z AUTO 32004KT 10SM CLR 14/12 A2998 RMK AO1
Loading
Personal Weather Stations






























Interactive Weather Map
Tropical Storm Tracking
New forecast layout! Learn more

10-Day Weather Forecast

Advertisements
Track Severe Weather on mobile